createdAt,value
2017-09-13T00:01:06.221Z,12.50
2017-09-13T00:03:33.777Z,12.90
2017-09-13T00:06:01.388Z,12.80
2017-09-13T00:08:28.948Z,12.80
2017-09-13T00:10:56.505Z,12.70
2017-09-13T00:13:24.105Z,12.60
2017-09-13T00:15:51.734Z,12.50
2017-09-13T00:18:20.108Z,12.40
2017-09-13T00:20:47.660Z,12.30
2017-09-13T00:23:15.208Z,12.30
2017-09-13T00:25:43.557Z,12.30
2017-09-13T00:28:11.149Z,12.30
2017-09-13T00:30:39.467Z,12.30
2017-09-13T00:33:07.062Z,12.30
2017-09-13T00:35:34.646Z,12.30
2017-09-13T00:38:02.233Z,12.30
2017-09-13T00:40:29.838Z,12.30
2017-09-13T00:42:57.392Z,12.30
2017-09-13T00:45:24.970Z,12.20
2017-09-13T00:47:52.572Z,12.20
2017-09-13T00:50:20.354Z,12.20
2017-09-13T00:52:47.935Z,12.20
2017-09-13T00:55:15.597Z,12.20
2017-09-13T00:57:43.165Z,12.20
2017-09-13T01:00:10.755Z,12.20
2017-09-13T01:02:38.318Z,12.10
2017-09-13T01:05:06.687Z,12.10
2017-09-13T01:07:35.018Z,12.10
2017-09-13T01:10:02.579Z,12.10
2017-09-13T01:12:30.205Z,12.10
2017-09-13T01:14:57.770Z,12.10
2017-09-13T01:17:25.325Z,12.10
2017-09-13T01:19:53.698Z,12.10
2017-09-13T01:22:22.031Z,12.00
2017-09-13T01:24:49.591Z,12.00
2017-09-13T01:27:17.199Z,12.10
2017-09-13T01:29:45.522Z,12.10
2017-09-13T01:32:13.073Z,12.10
2017-09-13T01:34:40.685Z,12.10
2017-09-13T01:37:08.283Z,12.10
2017-09-13T01:39:35.854Z,12.10
2017-09-13T01:42:03.463Z,12.10
2017-09-13T01:44:31.840Z,12.10
2017-09-13T01:46:59.419Z,12.00
2017-09-13T01:49:27.766Z,12.10
2017-09-13T01:51:55.367Z,12.00
2017-09-13T01:54:23.698Z,12.10
2017-09-13T01:56:51.247Z,12.00
2017-09-13T01:59:18.859Z,12.10
2017-09-13T02:01:47.236Z,12.10
2017-09-13T02:04:15.558Z,12.10
2017-09-13T02:06:43.177Z,12.10
2017-09-13T02:09:11.562Z,12.10
2017-09-13T02:11:39.911Z,12.10
2017-09-13T02:14:07.492Z,12.10
2017-09-13T02:16:36.558Z,12.10
2017-09-13T02:19:04.158Z,12.10
2017-09-13T02:21:32.485Z,12.10
2017-09-13T02:24:00.029Z,12.10
2017-09-13T02:26:27.632Z,12.10
2017-09-13T02:28:55.967Z,12.20
2017-09-13T02:31:23.571Z,12.20
2017-09-13T02:33:51.141Z,12.30
2017-09-13T02:36:19.468Z,12.40
2017-09-13T02:38:47.061Z,12.40
2017-09-13T02:41:15.473Z,12.60
2017-09-13T02:43:43.972Z,12.60
2017-09-13T02:46:11.739Z,12.60
2017-09-13T02:48:39.361Z,12.60
2017-09-13T02:51:07.739Z,12.70
2017-09-13T02:53:35.354Z,12.70
2017-09-13T02:56:02.910Z,12.80
2017-09-13T02:58:30.541Z,12.90
2017-09-13T03:00:58.873Z,13.00
2017-09-13T03:03:26.478Z,13.00
2017-09-13T03:05:54.090Z,13.00
2017-09-13T03:08:21.669Z,13.00
2017-09-13T03:10:49.220Z,13.00
2017-09-13T03:13:16.789Z,13.00
2017-09-13T03:15:44.360Z,13.00
2017-09-13T03:18:11.952Z,13.70
2017-09-13T03:20:39.561Z,13.00
2017-09-13T03:23:07.125Z,12.90
2017-09-13T03:25:34.685Z,12.90
2017-09-13T03:28:02.277Z,12.90
2017-09-13T03:30:30.646Z,12.90
2017-09-13T03:32:58.201Z,12.80
2017-09-13T03:35:25.810Z,12.80
2017-09-13T03:37:53.381Z,12.80
2017-09-13T03:40:20.946Z,12.80
2017-09-13T03:42:48.540Z,12.80
2017-09-13T03:45:16.146Z,12.80
2017-09-13T03:47:43.708Z,12.80
2017-09-13T03:50:11.277Z,12.80
2017-09-13T03:52:38.869Z,12.80
2017-09-13T03:55:06.453Z,12.80
2017-09-13T03:57:34.063Z,12.90
2017-09-13T04:00:01.618Z,12.90
2017-09-13T04:02:29.201Z,13.00
2017-09-13T04:04:56.793Z,13.20
2017-09-13T04:07:24.371Z,13.20
2017-09-13T04:09:52.724Z,13.20
2017-09-13T04:12:20.333Z,13.20
2017-09-13T04:14:47.975Z,13.20
2017-09-13T04:17:16.305Z,13.10
2017-09-13T04:19:43.941Z,13.20
2017-09-13T04:22:11.537Z,13.10
2017-09-13T04:24:39.102Z,13.10
2017-09-13T04:27:07.436Z,13.10
2017-09-13T04:29:35.026Z,13.00
2017-09-13T04:32:02.621Z,13.00
2017-09-13T04:34:30.187Z,13.10
2017-09-13T04:36:58.520Z,13.20
2017-09-13T04:39:26.100Z,13.20
2017-09-13T04:41:53.739Z,13.20
2017-09-13T04:44:22.134Z,13.30
2017-09-13T04:46:49.683Z,13.30
2017-09-13T04:49:17.250Z,13.40
2017-09-13T04:51:44.851Z,13.50
2017-09-13T04:54:13.228Z,13.60
2017-09-13T04:56:41.562Z,13.70
2017-09-13T04:59:09.114Z,13.60
2017-09-13T05:01:36.712Z,13.70
2017-09-13T05:04:04.306Z,13.70
2017-09-13T05:06:31.893Z,13.80
2017-09-13T05:08:59.493Z,13.80
2017-09-13T05:11:27.113Z,13.80
2017-09-13T05:13:54.713Z,13.90
2017-09-13T05:16:22.269Z,13.80
2017-09-13T05:18:49.820Z,13.80
2017-09-13T05:21:17.425Z,13.80
2017-09-13T05:23:45.848Z,13.90
2017-09-13T05:26:13.447Z,13.90
2017-09-13T05:28:41.009Z,13.90
2017-09-13T05:31:08.580Z,13.90
2017-09-13T05:33:36.980Z,14.00
2017-09-13T05:36:04.579Z,14.00
2017-09-13T05:38:32.140Z,14.00
2017-09-13T05:40:59.869Z,14.00
2017-09-13T05:43:27.428Z,14.10
2017-09-13T05:45:55.008Z,14.10
2017-09-13T05:48:22.609Z,13.90
2017-09-13T05:50:50.296Z,14.20
2017-09-13T05:53:18.738Z,14.30
2017-09-13T05:55:46.296Z,14.20
2017-09-13T05:58:13.897Z,14.20
2017-09-13T06:00:42.214Z,14.30
2017-09-13T06:03:09.841Z,14.20
2017-09-13T06:05:38.161Z,14.30
2017-09-13T06:08:05.724Z,14.30
2017-09-13T06:10:33.369Z,14.50
2017-09-13T06:13:01.847Z,14.70
2017-09-13T06:15:29.469Z,14.60
2017-09-13T06:17:57.048Z,14.70
2017-09-13T06:20:25.404Z,14.80
2017-09-13T06:22:52.957Z,14.80
2017-09-13T06:25:20.526Z,14.80
2017-09-13T06:27:48.113Z,14.90
2017-09-13T06:30:16.527Z,15.00
2017-09-13T06:32:44.121Z,15.00
2017-09-13T06:35:13.312Z,15.20
2017-09-13T06:37:40.873Z,15.20
2017-09-13T06:40:08.745Z,15.30
2017-09-13T06:42:36.320Z,15.30
2017-09-13T06:45:03.913Z,15.20
2017-09-13T06:47:31.547Z,15.30
2017-09-13T06:49:59.295Z,15.30
2017-09-13T06:52:26.853Z,15.40
2017-09-13T06:54:54.500Z,15.40
2017-09-13T06:57:22.268Z,15.50
2017-09-13T06:59:49.914Z,15.60
2017-09-13T07:02:17.559Z,15.60
2017-09-13T07:04:46.056Z,15.60
2017-09-13T07:07:14.575Z,15.60
2017-09-13T07:09:43.063Z,15.70
2017-09-13T07:12:10.713Z,15.60
2017-09-13T07:14:38.341Z,15.70
2017-09-13T07:17:06.001Z,15.70
2017-09-13T07:19:33.857Z,15.80
2017-09-13T07:22:01.566Z,15.70
2017-09-13T07:24:29.161Z,15.60
2017-09-13T07:26:57.479Z,15.70
2017-09-13T07:29:25.178Z,16.30
2017-09-13T07:31:52.799Z,15.70
2017-09-13T07:34:20.428Z,15.70
2017-09-13T07:36:48.069Z,15.70
2017-09-13T07:39:15.753Z,15.70
2017-09-13T07:41:44.200Z,15.80
2017-09-13T07:44:12.113Z,15.80
2017-09-13T07:46:39.787Z,16.10
2017-09-13T07:49:07.345Z,16.20
2017-09-13T07:51:34.896Z,16.30
2017-09-13T07:54:02.890Z,16.40
2017-09-13T07:56:30.469Z,16.50
2017-09-13T07:58:58.029Z,16.40
2017-09-13T08:01:25.884Z,16.40
2017-09-13T08:03:53.526Z,16.30
2017-09-13T08:06:21.085Z,16.30
2017-09-13T08:08:48.747Z,16.40
2017-09-13T08:11:16.394Z,16.40
2017-09-13T08:13:43.973Z,16.60
2017-09-13T08:16:11.674Z,16.50
2017-09-13T08:18:39.413Z,16.50
2017-09-13T08:21:07.008Z,16.70
2017-09-13T08:23:34.572Z,16.80
2017-09-13T08:26:02.293Z,16.90
2017-09-13T08:28:29.869Z,16.90
2017-09-13T08:30:57.425Z,16.80
2017-09-13T08:33:25.048Z,16.90
2017-09-13T08:35:52.633Z,16.70
2017-09-13T08:38:20.255Z,16.70
2017-09-13T08:40:48.624Z,16.80
2017-09-13T08:43:16.183Z,16.70
2017-09-13T08:45:43.856Z,16.80
2017-09-13T08:48:12.241Z,16.90
2017-09-13T08:50:40.566Z,17.00
2017-09-13T08:53:08.182Z,16.90
2017-09-13T08:55:36.538Z,17.10
2017-09-13T08:58:04.110Z,17.10
2017-09-13T09:00:33.158Z,17.40
2017-09-13T09:03:01.559Z,17.40
2017-09-13T09:05:29.154Z,17.30
2017-09-13T09:07:57.585Z,17.60
2017-09-13T09:10:25.241Z,17.50
2017-09-13T09:12:52.812Z,17.60
2017-09-13T09:15:21.205Z,17.50
2017-09-13T09:17:48.833Z,17.50
2017-09-13T09:20:17.614Z,17.60
2017-09-13T09:22:45.350Z,17.70
2017-09-13T09:25:13.864Z,17.80
2017-09-13T09:27:41.479Z,17.70
2017-09-13T09:30:28.265Z,17.90
2017-09-13T09:33:12.993Z,17.90
2017-09-13T09:35:42.049Z,18.00
2017-09-13T09:38:10.047Z,18.20
2017-09-13T09:40:37.702Z,18.50
2017-09-13T09:43:05.707Z,18.50
2017-09-13T09:45:34.449Z,18.50
2017-09-13T09:48:06.131Z,18.50
2017-09-13T09:50:39.771Z,18.70
2017-09-13T09:53:09.430Z,18.80
2017-09-13T09:55:40.429Z,18.80
2017-09-13T09:58:08.716Z,18.70
2017-09-13T10:00:41.630Z,18.60
2017-09-13T10:03:09.278Z,18.40
2017-09-13T10:05:41.993Z,18.30
2017-09-13T10:08:10.931Z,18.00
2017-09-13T10:10:42.478Z,17.90
2017-09-13T10:13:10.229Z,17.90
2017-09-13T10:15:43.251Z,18.00
2017-09-13T10:18:11.186Z,18.00
2017-09-13T10:20:38.756Z,18.00
2017-09-13T10:23:06.670Z,17.90
2017-09-13T10:25:35.675Z,18.10
2017-09-13T10:28:04.090Z,18.20
2017-09-13T10:30:31.710Z,18.20
2017-09-13T10:33:00.150Z,18.60
2017-09-13T10:35:27.797Z,18.50
2017-09-13T10:37:55.486Z,18.70
2017-09-13T10:40:23.096Z,18.80
2017-09-13T10:42:50.798Z,18.90
2017-09-13T10:45:18.462Z,19.00
2017-09-13T10:47:46.122Z,19.20
2017-09-13T10:50:13.708Z,19.50
2017-09-13T10:52:42.076Z,20.10
2017-09-13T10:55:09.683Z,20.10
2017-09-13T10:57:37.425Z,20.60
2017-09-13T11:00:05.819Z,21.10
2017-09-13T11:02:33.584Z,21.10
2017-09-13T11:05:01.164Z,21.40
2017-09-13T11:07:28.772Z,21.60
2017-09-13T11:09:56.365Z,21.70
2017-09-13T11:12:23.943Z,21.80
2017-09-13T11:14:51.557Z,21.70
2017-09-13T11:17:19.123Z,21.70
2017-09-13T11:19:46.831Z,21.80
2017-09-13T11:22:14.702Z,22.00
2017-09-13T11:24:42.597Z,21.90
2017-09-13T11:27:10.222Z,21.80
2017-09-13T11:29:38.007Z,21.70
2017-09-13T11:34:56.941Z,22.20
2017-09-13T11:37:25.557Z,22.00
2017-09-13T11:39:58.565Z,22.00
2017-09-13T11:42:32.520Z,22.00
2017-09-13T11:45:00.161Z,21.80
2017-09-13T11:47:27.867Z,21.70
2017-09-13T11:49:55.878Z,21.70
2017-09-13T11:52:23.533Z,21.80
2017-09-13T11:54:51.209Z,22.00
2017-09-13T11:57:19.948Z,21.80
2017-09-13T11:59:48.166Z,21.70
2017-09-13T12:02:15.836Z,21.70
2017-09-13T12:04:43.489Z,21.60
2017-09-13T12:07:11.212Z,21.60
2017-09-13T12:09:38.934Z,21.60
2017-09-13T12:12:06.651Z,21.40
2017-09-13T12:14:34.574Z,21.00
2017-09-13T12:17:02.334Z,20.90
2017-09-13T12:19:29.964Z,20.90
2017-09-13T12:21:57.791Z,20.70
2017-09-13T12:24:26.376Z,20.70
2017-09-13T12:26:55.146Z,20.40
2017-09-13T12:29:23.480Z,20.30
2017-09-13T12:31:53.329Z,20.30
2017-09-13T12:34:20.895Z,20.20
2017-09-13T12:36:49.525Z,20.10
2017-09-13T12:39:17.117Z,20.10
2017-09-13T12:41:44.839Z,20.00
2017-09-13T12:44:12.442Z,19.90
2017-09-13T12:46:40.044Z,19.80
2017-09-13T12:49:07.957Z,19.50
2017-09-13T12:51:35.698Z,19.50
2017-09-13T12:54:03.329Z,19.40
2017-09-13T12:56:31.070Z,19.30
2017-09-13T12:58:58.672Z,19.20
2017-09-13T13:01:28.073Z,19.40
2017-09-13T13:03:56.502Z,19.50
2017-09-13T13:06:24.160Z,19.50
2017-09-13T13:08:52.055Z,19.50
2017-09-13T13:11:20.169Z,19.60
2017-09-13T13:13:47.891Z,19.60
2017-09-13T13:16:15.529Z,19.80
2017-09-13T13:18:43.276Z,19.80
2017-09-13T13:21:10.966Z,20.00
2017-09-13T13:23:38.622Z,19.90
2017-09-13T13:26:06.340Z,19.90
2017-09-13T13:28:34.770Z,20.10
2017-09-13T13:31:02.345Z,20.00
2017-09-13T13:33:30.093Z,20.20
2017-09-13T13:35:57.708Z,20.50
2017-09-13T13:38:26.579Z,20.40
2017-09-13T13:43:28.227Z,20.40
2017-09-13T13:45:56.279Z,20.30
2017-09-13T13:48:24.203Z,20.30
2017-09-13T13:50:52.658Z,20.30
2017-09-13T13:53:20.365Z,20.30
2017-09-13T13:55:48.020Z,20.30
2017-09-13T13:58:16.596Z,20.30
2017-09-13T14:00:45.565Z,20.30
2017-09-13T14:03:13.323Z,20.30
2017-09-13T14:05:41.280Z,20.20
2017-09-13T14:08:09.790Z,20.20
2017-09-13T14:10:37.398Z,20.20
2017-09-13T14:13:05.230Z,20.20
2017-09-13T14:15:33.998Z,20.10
2017-09-13T14:18:01.612Z,20.10
2017-09-13T14:20:29.283Z,19.80
2017-09-13T14:22:57.365Z,19.40
2017-09-13T14:25:24.960Z,18.50
2017-09-13T14:27:52.517Z,17.80
2017-09-13T14:30:20.137Z,17.40
2017-09-13T14:32:47.774Z,17.20
2017-09-13T14:35:15.437Z,17.10
2017-09-13T14:37:43.018Z,17.00
2017-09-13T14:40:10.617Z,17.10
2017-09-13T14:42:38.323Z,17.00
2017-09-13T14:45:05.969Z,17.00
2017-09-13T14:47:33.664Z,17.10
2017-09-13T14:50:01.354Z,17.00
2017-09-13T14:52:29.049Z,17.10
2017-09-13T14:54:56.798Z,17.30
2017-09-13T14:57:24.562Z,17.20
2017-09-13T14:59:52.213Z,17.20
2017-09-13T15:02:19.837Z,17.10
2017-09-13T15:04:47.590Z,17.00
2017-09-13T15:07:16.388Z,17.00
2017-09-13T15:09:44.945Z,17.00
2017-09-13T15:12:12.633Z,17.10
2017-09-13T15:14:40.472Z,17.00
2017-09-13T15:17:09.025Z,17.20
2017-09-13T15:19:36.619Z,17.10
2017-09-13T15:22:04.297Z,17.10
2017-09-13T15:24:32.633Z,17.20
2017-09-13T15:27:00.270Z,17.10
2017-09-13T15:29:27.969Z,17.20
2017-09-13T15:31:55.651Z,17.20
2017-09-13T15:34:23.214Z,17.20
2017-09-13T15:36:52.306Z,17.10
2017-09-13T15:39:20.784Z,17.10
2017-09-13T15:41:48.489Z,17.10
2017-09-13T15:44:16.606Z,16.90
2017-09-13T15:46:44.677Z,16.80
2017-09-13T15:49:12.507Z,16.80
2017-09-13T15:51:40.191Z,16.70
2017-09-13T15:54:08.187Z,16.60
2017-09-13T15:56:35.909Z,16.40
2017-09-13T15:59:03.562Z,16.30
2017-09-13T16:01:31.232Z,16.20
2017-09-13T16:04:00.192Z,16.10
2017-09-13T16:06:27.862Z,16.10
2017-09-13T16:08:56.492Z,16.10
2017-09-13T16:11:24.262Z,16.00
2017-09-13T16:13:51.919Z,16.10
2017-09-13T16:16:20.332Z,16.00
2017-09-13T16:18:47.993Z,16.00
2017-09-13T16:21:15.611Z,16.00
2017-09-13T16:23:44.033Z,16.00
2017-09-13T16:26:11.602Z,16.00
2017-09-13T16:28:39.206Z,15.90
2017-09-13T16:31:06.799Z,15.90
2017-09-13T16:33:34.779Z,15.90
2017-09-13T16:36:02.405Z,15.90
2017-09-13T16:38:29.971Z,15.90
2017-09-13T16:40:57.659Z,15.90
2017-09-13T16:43:25.224Z,15.90
2017-09-13T16:45:52.829Z,15.80
2017-09-13T16:48:21.435Z,15.70
2017-09-13T16:50:49.042Z,15.70
2017-09-13T16:53:16.668Z,15.70
2017-09-13T16:55:44.273Z,15.50
2017-09-13T16:58:12.001Z,15.40
2017-09-13T17:00:39.617Z,15.20
2017-09-13T17:03:08.013Z,15.00
2017-09-13T17:05:35.701Z,15.00
2017-09-13T17:08:03.356Z,15.00
2017-09-13T17:10:31.735Z,15.00
2017-09-13T17:12:59.302Z,15.00
2017-09-13T17:15:26.965Z,14.90
2017-09-13T17:17:54.543Z,14.80
2017-09-13T17:20:22.284Z,14.80
2017-09-13T17:22:49.880Z,14.80
2017-09-13T17:25:17.615Z,14.70
2017-09-13T17:27:45.176Z,14.70
2017-09-13T17:30:12.793Z,14.70
2017-09-13T17:32:41.120Z,14.70
2017-09-13T17:35:08.786Z,14.70
2017-09-13T17:37:36.385Z,14.70
2017-09-13T17:40:04.104Z,14.60
2017-09-13T17:42:31.693Z,14.60
2017-09-13T17:44:59.270Z,14.70
2017-09-13T17:47:26.855Z,14.60
2017-09-13T17:49:56.406Z,14.60
2017-09-13T17:52:25.230Z,14.60
2017-09-13T17:54:53.561Z,14.60
2017-09-13T17:57:21.173Z,14.60
2017-09-13T17:59:49.498Z,14.50
2017-09-13T18:02:17.138Z,14.50
2017-09-13T18:04:44.868Z,14.40
2017-09-13T18:07:12.421Z,14.50
2017-09-13T18:09:40.022Z,14.40
2017-09-13T18:12:07.582Z,14.50
2017-09-13T18:14:35.380Z,14.40
2017-09-13T18:17:02.970Z,14.50
2017-09-13T18:19:30.606Z,14.50
2017-09-13T18:21:58.178Z,14.40
2017-09-13T18:24:25.877Z,14.40
2017-09-13T18:26:54.247Z,14.50
2017-09-13T18:29:22.622Z,14.50
2017-09-13T18:31:55.101Z,14.50
2017-09-13T18:34:23.463Z,14.40
2017-09-13T18:36:51.063Z,14.40
2017-09-13T18:39:19.429Z,14.40
2017-09-13T18:41:47.161Z,14.40
2017-09-13T18:44:15.181Z,14.40
2017-09-13T18:46:42.742Z,14.60
2017-09-13T18:49:10.367Z,14.60
2017-09-13T18:51:37.924Z,14.60
2017-09-13T18:54:05.533Z,14.50
2017-09-13T18:56:33.175Z,14.50
2017-09-13T18:59:01.486Z,14.50
2017-09-13T19:01:29.269Z,14.50
2017-09-13T19:03:56.892Z,14.60
2017-09-13T19:06:24.500Z,14.60
2017-09-13T19:08:52.074Z,14.70
2017-09-13T19:11:19.772Z,14.60
2017-09-13T19:13:47.365Z,14.60
2017-09-13T19:16:14.967Z,14.60
2017-09-13T19:18:43.365Z,14.70
2017-09-13T19:21:10.934Z,14.70
2017-09-13T19:23:38.979Z,14.60
2017-09-13T19:26:08.058Z,14.70
2017-09-13T19:28:35.627Z,14.70
2017-09-13T19:31:03.225Z,14.80
2017-09-13T19:33:30.800Z,14.80
2017-09-13T19:35:58.417Z,14.80
2017-09-13T19:38:26.043Z,14.80
2017-09-13T19:40:53.608Z,14.80
2017-09-13T19:43:21.209Z,14.80
2017-09-13T19:45:49.763Z,14.80
2017-09-13T19:48:17.324Z,14.80
2017-09-13T19:50:44.892Z,14.80
2017-09-13T19:53:14.027Z,14.70
2017-09-13T19:55:42.355Z,14.70
2017-09-13T19:58:09.941Z,14.70
2017-09-13T20:00:37.527Z,14.80
2017-09-13T20:03:05.085Z,15.00
2017-09-13T20:05:32.697Z,15.00
2017-09-13T20:08:00.254Z,14.90
2017-09-13T20:10:27.807Z,14.90
2017-09-13T20:12:55.409Z,14.90
2017-09-13T20:15:22.997Z,14.80
2017-09-13T20:17:51.307Z,15.00
2017-09-13T20:20:18.929Z,14.90
2017-09-13T20:22:46.488Z,14.80
2017-09-13T20:25:14.813Z,14.90
2017-09-13T20:27:42.401Z,14.90
2017-09-13T20:30:09.966Z,15.00
2017-09-13T20:32:37.617Z,14.80
2017-09-13T20:35:05.181Z,14.90
2017-09-13T20:37:32.742Z,14.90
2017-09-13T20:40:00.362Z,14.90
2017-09-13T20:42:27.962Z,14.80
2017-09-13T20:44:55.561Z,14.80
2017-09-13T20:47:23.146Z,14.80
2017-09-13T20:49:50.710Z,14.90
2017-09-13T20:52:18.310Z,14.80
2017-09-13T20:54:45.865Z,14.80
2017-09-13T20:57:13.450Z,14.80
2017-09-13T20:59:41.018Z,14.90
2017-09-13T21:02:09.404Z,14.90
2017-09-13T21:04:37.723Z,15.00
2017-09-13T21:07:05.277Z,15.00
2017-09-13T21:09:32.877Z,15.00
2017-09-13T21:12:01.361Z,14.90
2017-09-13T21:14:28.941Z,14.80
2017-09-13T21:16:57.343Z,14.70
2017-09-13T21:19:24.904Z,14.70
2017-09-13T21:21:52.476Z,14.70
2017-09-13T21:24:20.072Z,14.70
2017-09-13T21:26:47.680Z,14.70
2017-09-13T21:29:15.241Z,14.70
2017-09-13T21:31:42.796Z,14.70
2017-09-13T21:34:10.394Z,14.70
2017-09-13T21:36:37.998Z,14.70
2017-09-13T21:39:06.309Z,14.70
2017-09-13T21:41:33.914Z,14.70
2017-09-13T21:44:01.453Z,14.80
2017-09-13T21:46:29.009Z,14.80
2017-09-13T21:48:56.585Z,14.80
2017-09-13T21:51:24.189Z,14.80
2017-09-13T21:53:52.504Z,14.60
2017-09-13T21:56:20.114Z,14.60
2017-09-13T21:58:48.433Z,14.70
2017-09-13T22:01:15.997Z,14.70
2017-09-13T22:03:43.607Z,14.80
2017-09-13T22:06:11.177Z,14.80
2017-09-13T22:08:39.502Z,14.80
2017-09-13T22:11:07.131Z,14.70
2017-09-13T22:13:34.702Z,14.80
2017-09-13T22:16:02.250Z,14.80
2017-09-13T22:18:30.626Z,14.90
2017-09-13T22:20:58.948Z,14.90
2017-09-13T22:23:26.526Z,14.90
2017-09-13T22:25:54.120Z,15.00
2017-09-13T22:28:22.513Z,14.90
2017-09-13T22:30:50.101Z,14.90
2017-09-13T22:33:17.659Z,14.80
2017-09-13T22:35:46.017Z,15.00
2017-09-13T22:38:13.629Z,14.90
2017-09-13T22:40:41.223Z,15.00
2017-09-13T22:43:09.567Z,15.00
2017-09-13T22:45:37.974Z,14.90
2017-09-13T22:48:05.545Z,14.90
2017-09-13T22:50:33.902Z,14.40
2017-09-13T22:53:01.504Z,14.40
2017-09-13T22:55:29.150Z,14.40
2017-09-13T22:57:57.515Z,14.40
2017-09-13T23:00:25.841Z,14.40
2017-09-13T23:02:53.444Z,14.40
2017-09-13T23:05:21.025Z,14.30
2017-09-13T23:07:49.390Z,14.20
2017-09-13T23:10:17.750Z,14.30
2017-09-13T23:12:45.311Z,14.20
2017-09-13T23:15:12.909Z,14.30
2017-09-13T23:17:41.327Z,14.30
2017-09-13T23:20:08.931Z,14.30
2017-09-13T23:22:37.255Z,14.30
2017-09-13T23:25:04.882Z,14.20
2017-09-13T23:27:33.225Z,14.30
2017-09-13T23:30:00.780Z,14.30
2017-09-13T23:32:28.384Z,14.40
2017-09-13T23:34:55.964Z,14.50
2017-09-13T23:37:23.574Z,14.50
2017-09-13T23:39:51.137Z,14.40
2017-09-13T23:42:18.712Z,14.50
2017-09-13T23:44:46.339Z,14.50
2017-09-13T23:47:13.909Z,14.50
2017-09-13T23:49:41.486Z,14.50
2017-09-13T23:52:09.092Z,14.50
2017-09-13T23:54:36.654Z,14.50
2017-09-13T23:57:04.213Z,14.60
2017-09-13T23:59:31.810Z,14.60
